Time;durP1;ratioP1;P1;durP2;ratioP2;P2;SDS_P1;SDS_P2;PMS_P1;PMS_P2;Temp;Humidity;BMP_temperature;BMP_pressure;BME280_temperature;BME280_humidity;BME280_pressure;Samples;Min_cycle;Max_cycle;Signal;HPM_P1;HPM_P2
2022/07/28 00:00:26;;;;;;;6.55;1.90;;;19.50;94.10;;;;;;4159459;28;20391;-62
2022/07/28 00:02:27;;;;;;;3.08;1.75;;;19.60;94.10;;;;;;4130854;28;20034;-63
2022/07/28 00:04:28;;;;;;;2.53;1.58;;;19.50;94.10;;;;;;4144492;28;20038;-62
2022/07/28 00:06:30;;;;;;;2.88;1.90;;;19.50;94.30;;;;;;4135147;28;20092;-64
2022/07/28 00:08:31;;;;;;;2.90;2.10;;;19.50;94.40;;;;;;4128446;28;20715;-64
2022/07/28 00:10:32;;;;;;;3.15;1.90;;;19.50;94.40;;;;;;4129123;28;20038;-63
2022/07/28 00:12:33;;;;;;;5.10;2.20;;;19.50;94.50;;;;;;4129003;28;20433;-63
2022/07/28 00:14:35;;;;;;;4.20;2.08;;;19.50;94.60;;;;;;4128233;28;20573;-62
2022/07/28 00:16:36;;;;;;;4.18;2.58;;;19.40;94.60;;;;;;4128879;28;20430;-62
2022/07/28 00:18:37;;;;;;;3.22;1.95;;;19.40;94.80;;;;;;4126445;28;20034;-63
2022/07/28 00:20:38;;;;;;;2.67;2.15;;;19.50;94.90;;;;;;4129241;28;20578;-62
2022/07/28 00:22:41;;;;;;;5.05;2.35;;;19.40;94.80;;;;;;4127812;28;20042;-63
2022/07/28 00:24:42;;;;;;;2.70;1.80;;;19.20;95.10;;;;;;4129118;28;20035;-62
2022/07/28 00:26:43;;;;;;;3.03;2.47;;;19.10;95.40;;;;;;4127793;28;20084;-65
2022/07/28 00:28:44;;;;;;;3.65;2.78;;;18.90;95.60;;;;;;4130331;28;20034;-69
2022/07/28 00:30:45;;;;;;;2.83;2.00;;;18.80;95.90;;;;;;4111840;28;20082;-62
2022/07/28 00:32:47;;;;;;;5.32;2.03;;;18.80;96.20;;;;;;4123434;28;20084;-64
2022/07/28 00:34:49;;;;;;;4.45;2.08;;;18.70;96.40;;;;;;4127885;28;20422;-63
2022/07/28 00:36:51;;;;;;;3.08;1.83;;;18.60;96.50;;;;;;4128913;28;20062;-64
2022/07/28 00:38:52;;;;;;;5.05;2.00;;;18.50;96.70;;;;;;4128125;28;20097;-64
2022/07/28 00:41:11;;;;;;;3.90;2.10;;;18.50;97.10;;;;;;4128786;28;20049;-64
2022/07/28 00:43:13;;;;;;;3.10;1.87;;;18.50;97.50;;;;;;4128379;28;20089;-64
2022/07/28 00:45:14;;;;;;;2.60;2.00;;;18.40;97.70;;;;;;4128601;28;20663;-68
2022/07/28 00:47:15;;;;;;;2.40;2.20;;;18.40;98.00;;;;;;4134287;28;20041;-67
2022/07/28 00:49:16;;;;;;;2.88;1.92;;;18.30;98.30;;;;;;4144524;28;20072;-63
2022/07/28 00:51:22;;;;;;;4.10;2.13;;;18.40;98.50;;;;;;4130640;28;20067;-65
2022/07/28 00:53:23;;;;;;;2.03;1.83;;;18.30;98.70;;;;;;4128054;28;20034;-68
2022/07/28 00:55:25;;;;;;;2.63;1.90;;;18.30;98.80;;;;;;4131950;28;20434;-68
2022/07/28 00:57:27;;;;;;;2.38;1.88;;;18.20;99.10;;;;;;4132360;28;20030;-64
2022/07/28 00:59:28;;;;;;;1.77;1.65;;;18.10;99.40;;;;;;4132413;28;20084;-65
2022/07/28 01:01:29;;;;;;;2.40;2.00;;;18.10;99.60;;;;;;4131188;28;20050;-67
2022/07/28 01:03:32;;;;;;;2.40;2.00;;;18.10;99.90;;;;;;4132140;28;20092;-64
2022/07/28 01:06:03;;;;;;;2.78;2.25;;;18.10;99.90;;;;;;4131080;28;20088;-64
2022/07/28 01:08:45;;;;;;;2.25;1.65;;;18.10;99.90;;;;;;4144140;28;20092;-64
2022/07/28 01:11:00;;;;;;;6.13;2.28;;;18.00;99.90;;;;;;4135647;28;20050;-64
2022/07/28 01:13:18;;;;;;;3.83;2.20;;;18.00;99.90;;;;;;4147560;28;20084;-64
2022/07/28 01:15:19;;;;;;;3.38;2.38;;;18.10;99.90;;;;;;4144969;28;20095;-64
2022/07/28 01:17:47;;;;;;;3.92;2.10;;;18.00;99.90;;;;;;4131324;28;20015;-67
2022/07/28 01:20:20;;;;;;;3.22;2.15;;;18.10;99.90;;;;;;4133122;28;20046;-64
2022/07/28 01:22:24;;;;;;;3.80;1.67;;;18.20;99.90;;;;;;4130443;28;20054;-66
2022/07/28 01:24:30;;;;;;;4.20;2.17;;;18.10;99.90;;;;;;4131748;28;20438;-63
2022/07/28 01:26:47;;;;;;;2.78;2.10;;;18.20;99.90;;;;;;4144434;28;20418;-65
2022/07/28 01:29:33;;;;;;;6.30;2.20;;;18.20;99.90;;;;;;4148225;28;20022;-68
2022/07/28 01:31:39;;;;;;;2.25;1.90;;;18.20;99.90;;;;;;4116137;28;20042;-63
2022/07/28 01:33:51;;;;;;;4.07;2.30;;;18.10;99.90;;;;;;4123456;28;20089;-66
2022/07/28 01:36:03;;;;;;;4.03;1.83;;;18.10;99.90;;;;;;4130708;28;20042;-63
2022/07/28 01:38:07;;;;;;;2.78;2.53;;;18.10;99.90;;;;;;4131509;28;20529;-63
2022/07/28 01:40:12;;;;;;;2.78;2.00;;;18.10;99.90;;;;;;4130399;28;20089;-63
2022/07/28 01:42:16;;;;;;;1.98;1.85;;;18.10;99.90;;;;;;4131741;28;20050;-64
2022/07/28 01:44:20;;;;;;;3.05;2.00;;;18.10;99.90;;;;;;4130319;28;20042;-62
2022/07/28 01:46:23;;;;;;;2.45;1.95;;;18.10;99.90;;;;;;4143580;28;20061;-62
2022/07/28 01:48:25;;;;;;;2.47;2.00;;;18.10;99.90;;;;;;4146278;28;20046;-61
2022/07/28 01:50:28;;;;;;;2.17;1.73;;;18.10;99.90;;;;;;4147845;28;20045;-62
2022/07/28 01:52:31;;;;;;;3.95;2.20;;;18.20;99.90;;;;;;4146206;28;20486;-63
2022/07/28 01:54:36;;;;;;;2.55;2.08;;;18.10;99.90;;;;;;4133655;28;20065;-63
2022/07/28 01:56:39;;;;;;;2.92;1.80;;;18.10;99.90;;;;;;4130492;28;20047;-63
2022/07/28 01:58:43;;;;;;;4.97;2.30;;;18.10;99.90;;;;;;4131552;28;20042;-65
2022/07/28 02:00:48;;;;;;;2.17;1.95;;;18.20;99.90;;;;;;4137735;28;20466;-63
2022/07/28 02:02:51;;;;;;;2.20;1.65;;;18.20;99.90;;;;;;4146749;28;20045;-63
2022/07/28 02:04:54;;;;;;;3.85;1.92;;;18.20;99.90;;;;;;4146918;28;20030;-62
2022/07/28 02:06:56;;;;;;;2.42;1.52;;;18.20;99.90;;;;;;4129737;28;20097;-67
2022/07/28 02:09:01;;;;;;;3.03;1.88;;;18.20;99.90;;;;;;4131177;28;20050;-63
2022/07/28 02:13:22;;;;;;;5.53;2.20;;;18.10;99.90;;;;;;4130759;28;20038;-62
2022/07/28 02:15:26;;;;;;;2.78;2.10;;;18.10;99.90;;;;;;4129581;28;20568;-63
2022/07/28 02:17:30;;;;;;;2.67;1.98;;;18.00;99.90;;;;;;4130768;28;20080;-62
2022/07/28 02:19:33;;;;;;;3.22;2.00;;;18.00;99.90;;;;;;4129956;28;20034;-63
2022/07/28 02:21:36;;;;;;;7.70;2.10;;;18.00;99.90;;;;;;4134799;28;20049;-63
2022/07/28 02:23:39;;;;;;;4.40;2.25;;;18.00;99.90;;;;;;4145734;28;20026;-62
2022/07/28 02:25:42;;;;;;;3.15;2.17;;;18.10;99.90;;;;;;4146699;28;20034;-62
2022/07/28 02:27:48;;;;;;;3.15;2.08;;;18.00;99.90;;;;;;4146207;28;20525;-64
2022/07/28 02:29:56;;;;;;;3.05;1.90;;;18.00;99.90;;;;;;4146912;28;20536;-60
2022/07/28 02:32:21;;;;;;;3.70;2.20;;;18.00;99.90;;;;;;4145581;28;20038;-64
2022/07/28 02:34:25;;;;;;;4.03;1.85;;;18.00;99.90;;;;;;4137333;28;20034;-61
2022/07/28 02:36:36;;;;;;;2.33;2.13;;;17.90;99.90;;;;;;4129233;28;20046;-64
2022/07/28 02:38:45;;;;;;;3.22;2.08;;;18.00;99.90;;;;;;4130398;28;20061;-63
2022/07/28 02:40:50;;;;;;;3.88;2.42;;;18.00;99.90;;;;;;4129138;28;20085;-62
2022/07/28 02:42:53;;;;;;;4.95;2.40;;;18.00;99.90;;;;;;4130503;28;20089;-62
2022/07/28 02:44:59;;;;;;;4.65;2.03;;;18.00;99.90;;;;;;4129438;28;20031;-62
2022/07/28 02:47:06;;;;;;;6.97;2.10;;;18.10;99.90;;;;;;4130340;28;20038;-62
2022/07/28 02:49:20;;;;;;;5.85;2.35;;;18.10;99.90;;;;;;4129367;28;20065;-62
2022/07/28 02:51:23;;;;;;;3.92;2.40;;;18.20;99.90;;;;;;4114049;28;20085;-62
2022/07/28 02:53:27;;;;;;;4.78;2.55;;;18.20;99.90;;;;;;4113096;28;20078;-61
2022/07/28 02:55:29;;;;;;;3.70;2.38;;;18.20;99.90;;;;;;4122849;28;20081;-62
2022/07/28 02:57:30;;;;;;;9.63;2.80;;;18.10;99.90;;;;;;4129675;28;20057;-65
2022/07/28 02:59:34;;;;;;;4.93;2.10;;;18.10;99.90;;;;;;4130217;28;20577;-62
2022/07/28 03:01:36;;;;;;;3.65;2.72;;;18.00;99.90;;;;;;4128764;28;20054;-63
2022/07/28 03:03:37;;;;;;;2.67;2.25;;;18.00;99.90;;;;;;4129871;28;20042;-62
2022/07/28 03:05:40;;;;;;;3.50;2.10;;;17.90;99.90;;;;;;4129527;28;20415;-63
2022/07/28 03:07:42;;;;;;;5.57;2.25;;;17.90;99.90;;;;;;4129389;28;20089;-63
2022/07/28 03:09:45;;;;;;;2.85;2.55;;;17.80;99.90;;;;;;4129698;28;20077;-67
2022/07/28 03:11:52;;;;;;;3.42;2.60;;;17.80;99.90;;;;;;4129161;28;20034;-62
2022/07/28 03:13:54;;;;;;;4.63;2.38;;;17.80;99.90;;;;;;4129787;28;20749;-67
2022/07/28 03:15:55;;;;;;;4.85;2.40;;;17.70;99.90;;;;;;4130965;28;20549;-64
2022/07/28 03:17:56;;;;;;;4.20;2.58;;;17.70;99.90;;;;;;4145285;28;20026;-63
2022/07/28 03:19:57;;;;;;;4.38;2.08;;;17.80;99.90;;;;;;4145142;28;20049;-63
2022/07/28 03:21:58;;;;;;;6.47;2.50;;;18.00;99.90;;;;;;4146116;28;20370;-62
2022/07/28 03:23:59;;;;;;;2.70;2.15;;;18.10;99.90;;;;;;4144894;28;20187;-66
2022/07/28 03:26:35;;;;;;;2.17;2.00;;;18.20;99.90;;;;;;4139113;28;20089;-63
2022/07/28 03:28:38;;;;;;;6.10;3.42;;;18.40;99.90;;;;;;4129249;28;20081;-64
2022/07/28 03:30:47;;;;;;;3.65;2.20;;;18.80;99.90;;;;;;4130253;28;20050;-65
2022/07/28 03:32:55;;;;;;;7.03;2.70;;;18.90;99.90;;;;;;4131048;28;20112;-66
2022/07/28 03:34:57;;;;;;;3.13;2.33;;;19.10;99.90;;;;;;4134424;28;20030;-64
2022/07/28 03:37:09;;;;;;;3.65;2.50;;;19.40;99.90;;;;;;4128324;28;20446;-63
2022/07/28 03:39:14;;;;;;;2.83;2.42;;;19.60;99.90;;;;;;4129552;28;20030;-63
2022/07/28 03:41:17;;;;;;;7.20;2.53;;;19.80;99.70;;;;;;4128488;28;20096;-63
2022/07/28 03:43:22;;;;;;;3.00;2.30;;;20.10;99.20;;;;;;4129397;28;20080;-67
2022/07/28 03:45:24;;;;;;;2.70;2.28;;;20.50;98.70;;;;;;4128413;28;20085;-62
2022/07/28 03:47:25;;;;;;;3.70;2.63;;;20.90;98.00;;;;;;4129615;28;20120;-63
2022/07/28 03:49:26;;;;;;;3.28;2.13;;;21.00;97.50;;;;;;4140165;28;20379;-62
2022/07/28 03:51:28;;;;;;;3.50;2.10;;;21.10;97.10;;;;;;4138128;28;20038;-64
2022/07/28 03:53:29;;;;;;;7.10;2.75;;;21.00;96.90;;;;;;4135151;28;20010;-62
2022/07/28 03:55:30;;;;;;;4.47;2.03;;;20.90;96.50;;;;;;4138229;28;20077;-62
2022/07/28 03:57:31;;;;;;;6.22;2.20;;;20.90;96.40;;;;;;4136726;28;20089;-63
2022/07/28 03:59:33;;;;;;;3.13;2.30;;;20.80;96.60;;;;;;4132258;28;21707;-62
2022/07/28 04:01:34;;;;;;;3.15;2.25;;;20.90;96.50;;;;;;4131134;28;20042;-63
2022/07/28 04:03:35;;;;;;;3.95;2.28;;;21.30;96.10;;;;;;4134352;28;20112;-64
2022/07/28 04:05:36;;;;;;;2.80;1.80;;;21.80;95.60;;;;;;4131111;28;20037;-65
2022/07/28 04:07:38;;;;;;;5.05;2.22;;;22.20;95.00;;;;;;4126515;28;20038;-64
2022/07/28 04:09:40;;;;;;;3.50;2.10;;;22.50;94.40;;;;;;4134915;28;20041;-63
2022/07/28 04:11:42;;;;;;;6.20;2.97;;;23.00;93.80;;;;;;4135871;28;20474;-63
2022/07/28 04:13:43;;;;;;;2.78;2.10;;;23.40;93.30;;;;;;4134068;28;20034;-63
2022/07/28 04:15:44;;;;;;;6.10;2.58;;;23.60;92.60;;;;;;4128043;28;20026;-64
2022/07/28 04:17:49;;;;;;;6.00;2.13;;;23.70;92.20;;;;;;4131484;28;20363;-63
2022/07/28 04:19:50;;;;;;;4.88;2.17;;;23.50;91.90;;;;;;4126622;28;20037;-62
2022/07/28 04:21:52;;;;;;;4.13;1.73;;;23.60;91.80;;;;;;4134912;28;20041;-64
2022/07/28 04:23:53;;;;;;;4.65;2.00;;;23.70;91.60;;;;;;4128816;28;20548;-68
2022/07/28 04:25:54;;;;;;;3.72;1.83;;;23.90;91.20;;;;;;4128173;28;20119;-63
2022/07/28 04:27:55;;;;;;;2.03;1.92;;;24.10;90.90;;;;;;4131437;28;20054;-63
2022/07/28 04:29:56;;;;;;;3.08;2.00;;;24.60;90.50;;;;;;4131650;28;20038;-63
2022/07/28 04:31:57;;;;;;;3.65;2.28;;;25.00;89.90;;;;;;4131530;28;20097;-63
2022/07/28 04:33:59;;;;;;;2.70;2.00;;;25.30;88.90;;;;;;4134737;28;20314;-65
2022/07/28 04:36:02;;;;;;;7.15;2.15;;;25.30;88.20;;;;;;4131999;28;20124;-63
2022/07/28 04:38:04;;;;;;;3.15;2.13;;;25.40;87.40;;;;;;4133571;28;20053;-63
2022/07/28 04:40:09;;;;;;;8.10;2.45;;;25.60;87.10;;;;;;4135502;28;20030;-65
2022/07/28 04:42:10;;;;;;;4.50;2.10;;;25.90;86.20;;;;;;4132290;28;20100;-64
2022/07/28 04:44:12;;;;;;;3.47;2.05;;;26.10;85.80;;;;;;4137420;28;20101;-65
2022/07/28 04:46:13;;;;;;;6.20;2.00;;;26.00;85.20;;;;;;4131111;28;20097;-65
2022/07/28 04:48:14;;;;;;;4.30;2.13;;;26.00;84.90;;;;;;4137981;28;20085;-64
2022/07/28 04:50:17;;;;;;;6.68;2.65;;;26.10;84.50;;;;;;4131506;28;20193;-63
2022/07/28 04:52:19;;;;;;;3.53;1.98;;;25.80;84.30;;;;;;4130361;28;20039;-63
2022/07/28 04:54:20;;;;;;;3.78;2.20;;;25.90;84.20;;;;;;4130265;28;20030;-62
2022/07/28 04:56:21;;;;;;;5.65;1.88;;;25.90;84.00;;;;;;4140039;28;20046;-66
2022/07/28 04:58:23;;;;;;;3.28;2.30;;;25.70;83.50;;;;;;4130273;28;20043;-67
2022/07/28 05:00:24;;;;;;;5.07;2.72;;;25.50;83.70;;;;;;4131866;28;20085;-64
2022/07/28 05:02:26;;;;;;;8.73;6.88;;;25.50;83.90;;;;;;4130954;28;20181;-62
2022/07/28 05:04:27;;;;;;;5.95;2.05;;;25.40;83.80;;;;;;4131249;28;20034;-63
2022/07/28 05:06:29;;;;;;;6.82;2.75;;;25.40;84.30;;;;;;4131388;28;20046;-65
2022/07/28 05:08:30;;;;;;;3.05;1.92;;;25.50;83.70;;;;;;4131285;28;20100;-66
2022/07/28 05:10:31;;;;;;;4.15;1.75;;;25.60;83.40;;;;;;4131593;28;20465;-67
2022/07/28 05:12:32;;;;;;;4.93;1.90;;;25.50;83.10;;;;;;4130477;28;20031;-66
2022/07/28 05:14:33;;;;;;;4.18;1.73;;;25.20;83.10;;;;;;4131556;28;20038;-66
2022/07/28 05:16:35;;;;;;;4.97;2.00;;;25.10;83.40;;;;;;4130593;28;20031;-63
2022/07/28 05:18:36;;;;;;;3.42;1.80;;;25.00;83.60;;;;;;4131613;28;20475;-65
2022/07/28 05:20:37;;;;;;;4.13;2.22;;;25.00;83.70;;;;;;4130391;28;20034;-63
2022/07/28 05:22:52;;;;;;;8.63;2.10;;;25.10;83.70;;;;;;4130923;28;20455;-64
2022/07/28 05:24:53;;;;;;;5.10;2.22;;;25.40;83.50;;;;;;4130617;28;20503;-64
2022/07/28 05:26:54;;;;;;;3.83;2.10;;;25.50;83.20;;;;;;4131447;28;20038;-66
2022/07/28 05:28:56;;;;;;;4.60;2.67;;;25.60;83.20;;;;;;4130725;28;20054;-65
2022/07/28 05:30:57;;;;;;;4.65;2.20;;;25.80;82.70;;;;;;4131594;28;20092;-65
2022/07/28 05:33:00;;;;;;;5.30;2.08;;;25.80;82.50;;;;;;4130463;28;20066;-64
2022/07/28 05:35:01;;;;;;;5.97;2.38;;;25.90;82.40;;;;;;4131287;28;20027;-65
2022/07/28 05:37:02;;;;;;;6.32;2.28;;;25.80;82.60;;;;;;4130724;28;20038;-64
2022/07/28 05:39:03;;;;;;;6.10;2.05;;;26.00;82.50;;;;;;4130812;28;20042;-66
2022/07/28 05:41:05;;;;;;;1.98;1.88;;;26.20;82.00;;;;;;4129609;28;20458;-64
2022/07/28 05:43:06;;;;;;;8.55;2.20;;;26.40;81.80;;;;;;4130480;28;20069;-66
2022/07/28 05:45:09;;;;;;;5.18;2.10;;;26.40;81.30;;;;;;4130813;28;20421;-64
2022/07/28 05:47:10;;;;;;;7.90;4.30;;;26.40;81.10;;;;;;4130029;28;20089;-63
2022/07/28 05:49:11;;;;;;;6.18;2.42;;;26.90;80.60;;;;;;4131160;28;20092;-64
2022/07/28 05:51:12;;;;;;;4.28;2.78;;;27.10;80.10;;;;;;4129929;28;20093;-66
2022/07/28 05:53:14;;;;;;;4.45;2.25;;;27.20;79.70;;;;;;4131307;28;20105;-64
2022/07/28 05:55:15;;;;;;;10.20;2.80;;;27.10;79.50;;;;;;4130060;28;20038;-65
2022/07/28 05:57:16;;;;;;;3.50;1.67;;;27.10;79.40;;;;;;4130881;28;20022;-65
2022/07/28 05:59:17;;;;;;;8.25;2.20;;;26.90;79.70;;;;;;4130167;28;20026;-64
2022/07/28 06:01:19;;;;;;;5.65;2.28;;;27.40;79.50;;;;;;4130779;28;20026;-66
2022/07/28 06:03:20;;;;;;;3.95;2.20;;;28.20;78.40;;;;;;4129558;28;20046;-65
2022/07/28 06:05:22;;;;;;;4.55;2.13;;;28.70;77.40;;;;;;4130463;28;20038;-64
2022/07/28 06:07:23;;;;;;;5.43;1.90;;;28.70;76.90;;;;;;4129918;28;20427;-65
2022/07/28 06:09:24;;;;;;;4.53;2.35;;;28.90;76.60;;;;;;4130224;28;20042;-64
2022/07/28 06:11:25;;;;;;;5.22;1.83;;;29.20;76.20;;;;;;4129908;28;20081;-63
2022/07/28 06:13:28;;;;;;;3.63;1.63;;;29.00;75.90;;;;;;4129972;28;20037;-65
2022/07/28 06:15:29;;;;;;;3.00;2.08;;;28.80;76.00;;;;;;4130487;28;21096;-65
2022/07/28 06:17:30;;;;;;;2.42;2.03;;;28.60;76.30;;;;;;4129549;28;20113;-65
2022/07/28 06:19:31;;;;;;;7.80;2.38;;;28.30;76.60;;;;;;4130596;28;20027;-64
2022/07/28 06:21:32;;;;;;;4.70;2.33;;;28.10;76.90;;;;;;4129053;28;20046;-64
2022/07/28 06:23:33;;;;;;;3.28;2.15;;;27.90;77.40;;;;;;4128900;28;20042;-66
2022/07/28 06:25:35;;;;;;;7.50;2.67;;;28.00;77.60;;;;;;4129544;28;20092;-63
2022/07/28 06:27:36;;;;;;;5.95;2.67;;;28.10;77.70;;;;;;4130683;28;20477;-64
2022/07/28 06:29:37;;;;;;;5.10;2.53;;;28.40;77.50;;;;;;4129759;28;20050;-64
2022/07/28 06:31:38;;;;;;;8.88;2.55;;;28.60;77.20;;;;;;4130340;28;20034;-64
2022/07/28 06:33:39;;;;;;;9.63;3.55;;;28.70;77.30;;;;;;4128795;28;20089;-64
2022/07/28 06:35:41;;;;;;;4.57;2.78;;;28.60;77.50;;;;;;4130223;28;20088;-64
2022/07/28 06:37:43;;;;;;;7.20;2.60;;;28.00;78.50;;;;;;4129062;28;20030;-64
2022/07/28 06:39:44;;;;;;;10.38;4.35;;;27.80;79.70;;;;;;4129685;28;20072;-65
2022/07/28 06:41:45;;;;;;;16.77;4.03;;;27.40;80.30;;;;;;4129320;28;20487;-64
2022/07/28 06:43:46;;;;;;;10.63;3.58;;;27.50;81.10;;;;;;4129339;28;20158;-65
2022/07/28 06:45:50;;;;;;;7.97;3.40;;;28.00;80.90;;;;;;4129189;28;20105;-63
2022/07/28 06:47:52;;;;;;;11.45;4.07;;;28.10;80.10;;;;;;4129085;28;21468;-66
2022/07/28 06:49:53;;;;;;;8.75;2.70;;;28.20;79.80;;;;;;4129877;28;20088;-65
2022/07/28 06:51:55;;;;;;;4.85;2.63;;;28.30;79.50;;;;;;4128302;28;20034;-67
2022/07/28 06:53:57;;;;;;;6.53;2.47;;;28.20;79.50;;;;;;4130104;28;20097;-67
2022/07/28 06:55:58;;;;;;;10.65;2.97;;;28.40;79.30;;;;;;4128642;28;20376;-65
2022/07/28 06:57:59;;;;;;;6.75;3.13;;;28.80;78.90;;;;;;4130437;28;20038;-65
2022/07/28 07:00:06;;;;;;;6.45;2.97;;;29.20;78.20;;;;;;4128786;28;20510;-66
2022/07/28 07:02:08;;;;;;;6.10;2.28;;;29.40;77.60;;;;;;4129871;28;20112;-66
2022/07/28 07:04:09;;;;;;;4.05;2.78;;;29.40;77.50;;;;;;4128610;28;20031;-66
2022/07/28 07:06:10;;;;;;;3.42;2.63;;;28.90;77.70;;;;;;4129597;28;20039;-64
2022/07/28 07:08:11;;;;;;;8.63;2.90;;;28.50;78.50;;;;;;4128427;28;20034;-64
2022/07/28 07:10:12;;;;;;;7.75;3.25;;;28.60;78.80;;;;;;4129616;28;20105;-65
2022/07/28 07:12:13;;;;;;;4.47;3.00;;;28.80;78.80;;;;;;4128927;28;20034;-64
2022/07/28 07:14:14;;;;;;;8.52;3.28;;;28.60;78.90;;;;;;4129004;28;20440;-66
2022/07/28 07:16:16;;;;;;;8.77;3.95;;;28.20;79.40;;;;;;4128880;28;20089;-65
2022/07/28 07:18:17;;;;;;;14.43;4.00;;;27.80;80.40;;;;;;4128943;28;20426;-65
2022/07/28 07:20:18;;;;;;;8.20;3.75;;;27.60;80.90;;;;;;4129338;28;20807;-66
2022/07/28 07:22:19;;;;;;;9.63;3.55;;;27.60;81.20;;;;;;4128090;28;20050;-66
2022/07/28 07:24:20;;;;;;;13.30;4.03;;;27.60;81.50;;;;;;4129778;28;20549;-64
2022/07/28 07:26:22;;;;;;;6.68;3.53;;;27.30;82.00;;;;;;4128414;28;20112;-67
2022/07/28 07:28:23;;;;;;;3.80;3.33;;;26.90;83.10;;;;;;4129842;28;20046;-64
2022/07/28 07:30:24;;;;;;;4.47;3.60;;;26.70;84.10;;;;;;4128681;28;20038;-64
2022/07/28 07:32:25;;;;;;;3.63;3.22;;;26.40;84.90;;;;;;4129808;28;20082;-64
2022/07/28 07:34:27;;;;;;;5.00;3.40;;;26.20;85.60;;;;;;4128727;28;20050;-64
2022/07/28 07:36:28;;;;;;;5.38;3.28;;;26.30;85.50;;;;;;4160808;28;20436;-65
2022/07/28 07:38:29;;;;;;;8.57;3.78;;;26.40;85.90;;;;;;4128519;28;20556;-65
2022/07/28 07:40:30;;;;;;;4.47;3.47;;;26.30;85.90;;;;;;4129394;28;20022;-67
2022/07/28 07:42:32;;;;;;;4.18;3.50;;;26.30;86.00;;;;;;4128273;28;20395;-64
2022/07/28 07:44:33;;;;;;;4.80;3.67;;;26.40;85.90;;;;;;4128923;28;20050;-67
2022/07/28 07:46:38;;;;;;;7.30;3.70;;;26.60;86.00;;;;;;4128807;28;20038;-64
2022/07/28 07:48:39;;;;;;;3.67;3.38;;;26.60;85.90;;;;;;4128497;28;20093;-65
2022/07/28 07:50:40;;;;;;;8.35;3.65;;;26.70;85.50;;;;;;4128729;28;20097;-65
2022/07/28 07:52:41;;;;;;;7.25;3.03;;;27.00;85.20;;;;;;4127849;28;20598;-64
2022/07/28 07:54:44;;;;;;;13.00;3.65;;;27.20;84.80;;;;;;4129142;28;20026;-66
2022/07/28 07:56:45;;;;;;;10.27;3.25;;;27.40;84.60;;;;;;4128121;28;20026;-65
2022/07/28 07:58:46;;;;;;;12.60;3.67;;;27.80;84.50;;;;;;4129622;28;20022;-67
2022/07/28 08:00:47;;;;;;;12.80;3.70;;;28.00;84.30;;;;;;4127851;28;20031;-66
2022/07/28 08:02:48;;;;;;;4.80;3.53;;;27.70;84.20;;;;;;4128847;28;20034;-66
2022/07/28 08:04:50;;;;;;;3.75;3.13;;;27.50;84.30;;;;;;4127538;28;20038;-64
2022/07/28 08:06:52;;;;;;;3.97;3.60;;;27.50;84.50;;;;;;4128809;28;20027;-64
2022/07/28 08:08:54;;;;;;;7.40;3.83;;;27.20;85.30;;;;;;4128084;28;20108;-64
2022/07/28 08:10:55;;;;;;;3.53;3.22;;;27.10;86.30;;;;;;4128921;28;20088;-66
2022/07/28 08:12:57;;;;;;;4.65;4.13;;;27.00;86.00;;;;;;4127879;28;20030;-64
2022/07/28 08:14:58;;;;;;;6.05;4.03;;;27.00;86.30;;;;;;4127534;28;20112;-65
2022/07/28 08:16:59;;;;;;;4.95;3.80;;;27.00;86.10;;;;;;4128250;28;20088;-66
2022/07/28 08:19:00;;;;;;;6.28;3.50;;;26.90;86.40;;;;;;4128227;28;20034;-64
2022/07/28 08:21:02;;;;;;;3.92;3.58;;;26.70;86.90;;;;;;4127922;28;20026;-65
2022/07/28 08:23:03;;;;;;;8.63;4.38;;;26.90;87.10;;;;;;4127729;28;20046;-66
2022/07/28 08:25:04;;;;;;;5.93;3.83;;;27.00;86.80;;;;;;4128884;28;20092;-65
2022/07/28 08:27:06;;;;;;;5.90;4.50;;;27.00;86.60;;;;;;4127248;28;20108;-65
2022/07/28 08:29:08;;;;;;;6.45;3.70;;;27.00;86.50;;;;;;4128958;28;20026;-64
2022/07/28 08:31:09;;;;;;;9.48;4.20;;;27.10;86.30;;;;;;4127484;28;20463;-65
2022/07/28 08:33:10;;;;;;;7.25;3.58;;;27.30;86.10;;;;;;4128704;28;20085;-63
2022/07/28 08:35:12;;;;;;;8.68;3.92;;;27.40;86.00;;;;;;4127304;28;20471;-65
2022/07/28 08:37:13;;;;;;;9.20;3.50;;;27.50;85.60;;;;;;4128887;28;20042;-66
2022/07/28 08:39:14;;;;;;;4.65;3.50;;;27.50;85.70;;;;;;4127760;28;20446;-64
2022/07/28 08:41:24;;;;;;;8.27;4.28;;;27.60;85.40;;;;;;4128844;28;20042;-63
2022/07/28 08:43:32;;;;;;;9.75;4.00;;;27.70;85.00;;;;;;4127558;28;20105;-64
2022/07/28 08:45:35;;;;;;;5.25;3.53;;;27.70;84.70;;;;;;4128878;28;20128;-67
2022/07/28 08:47:37;;;;;;;7.65;3.67;;;27.50;84.70;;;;;;4127539;28;20030;-65
2022/07/28 08:49:41;;;;;;;12.20;4.40;;;27.40;84.60;;;;;;4128476;28;20050;-64
2022/07/28 08:51:45;;;;;;;4.60;2.85;;;27.50;84.30;;;;;;4127429;28;20081;-64
2022/07/28 08:53:48;;;;;;;7.03;3.80;;;27.60;84.30;;;;;;4128314;28;20388;-63
2022/07/28 08:55:50;;;;;;;10.25;3.83;;;27.80;83.90;;;;;;4127872;28;20050;-63
2022/07/28 08:57:55;;;;;;;10.38;4.22;;;27.90;83.50;;;;;;4127724;28;20026;-66
2022/07/28 08:59:56;;;;;;;4.32;2.80;;;27.80;83.50;;;;;;4128497;28;20447;-64
2022/07/28 09:01:58;;;;;;;8.23;3.72;;;27.90;83.30;;;;;;4127271;28;20447;-66
2022/07/28 09:03:59;;;;;;;8.20;4.00;;;27.80;83.40;;;;;;4127938;28;20042;-62
2022/07/28 09:06:01;;;;;;;3.70;3.15;;;27.80;83.20;;;;;;4127302;28;20046;-64
2022/07/28 09:08:02;;;;;;;4.75;3.38;;;28.00;82.90;;;;;;4128417;28;20459;-64
2022/07/28 09:10:04;;;;;;;6.03;2.88;;;28.00;82.50;;;;;;4127559;28;20506;-62
2022/07/28 09:12:06;;;;;;;10.82;3.35;;;28.10;82.30;;;;;;4128662;28;20069;-65
2022/07/28 09:14:07;;;;;;;6.88;3.42;;;28.30;81.90;;;;;;4126950;28;20152;-65
2022/07/28 09:16:08;;;;;;;5.00;3.20;;;28.40;81.30;;;;;;4131327;28;20050;-67
2022/07/28 09:18:09;;;;;;;4.35;2.65;;;28.50;80.80;;;;;;4130295;28;20030;-65
2022/07/28 09:20:11;;;;;;;8.50;2.95;;;28.30;80.50;;;;;;4131344;28;20101;-64
2022/07/28 09:22:13;;;;;;;3.20;2.60;;;28.20;80.70;;;;;;4129806;28;20048;-65
2022/07/28 09:24:39;;;;;;;4.32;2.53;;;28.30;80.40;;;;;;4131308;28;20038;-65
2022/07/28 09:26:59;;;;;;;5.35;2.60;;;28.20;78.90;;;;;;4130265;28;20448;-65
2022/07/28 09:29:02;;;;;;;3.35;2.38;;;28.10;78.30;;;;;;4131592;28;20482;-64
2022/07/28 09:31:06;;;;;;;8.73;3.40;;;28.00;79.10;;;;;;4130286;28;20092;-64
2022/07/28 09:33:28;;;;;;;4.32;2.80;;;27.90;79.50;;;;;;4131268;28;20046;-66
2022/07/28 09:35:29;;;;;;;2.92;2.58;;;27.70;80.30;;;;;;4130138;28;20050;-65
2022/07/28 09:37:31;;;;;;;3.90;2.78;;;27.50;80.60;;;;;;4131015;28;20454;-64
2022/07/28 09:39:33;;;;;;;4.82;2.65;;;27.50;80.60;;;;;;4130034;28;20427;-65
2022/07/28 09:41:48;;;;;;;5.47;2.60;;;27.50;80.70;;;;;;4131423;28;20069;-65
2022/07/28 09:43:51;;;;;;;4.90;2.65;;;27.80;80.00;;;;;;4130169;28;20109;-65
2022/07/28 09:46:29;;;;;;;2.60;2.25;;;27.90;79.90;;;;;;4131112;28;20038;-66
2022/07/28 09:48:30;;;;;;;5.93;2.80;;;28.10;79.50;;;;;;4129954;28;20030;-67
2022/07/28 09:50:31;;;;;;;3.83;2.50;;;28.30;79.50;;;;;;4161977;28;20107;-66
2022/07/28 09:52:36;;;;;;;4.32;2.92;;;28.30;79.60;;;;;;4129600;28;20091;-67
2022/07/28 09:54:38;;;;;;;3.47;2.50;;;28.40;79.60;;;;;;4130814;28;20034;-65
2022/07/28 09:56:42;;;;;;;3.17;2.80;;;28.60;79.40;;;;;;4129839;28;20022;-64
2022/07/28 09:58:54;;;;;;;2.92;2.50;;;28.60;78.90;;;;;;4131133;28;20030;-66
2022/07/28 10:01:12;;;;;;;5.03;3.28;;;28.50;78.00;;;;;;4130120;28;20038;-65
2022/07/28 10:03:25;;;;;;;4.30;2.92;;;28.60;78.30;;;;;;4130897;28;20058;-65
2022/07/28 10:05:48;;;;;;;2.80;2.50;;;28.60;77.70;;;;;;4129739;28;20039;-65
2022/07/28 10:07:49;;;;;;;4.88;2.63;;;28.60;78.10;;;;;;4130889;28;20026;-63
2022/07/28 10:10:00;;;;;;;3.00;2.42;;;28.60;78.20;;;;;;4129756;28;20050;-63
2022/07/28 10:12:19;;;;;;;4.88;2.75;;;28.70;77.90;;;;;;4130944;28;20092;-63
2022/07/28 10:14:31;;;;;;;8.13;3.03;;;28.90;77.90;;;;;;4129815;28;20038;-64
2022/07/28 10:16:35;;;;;;;5.22;2.45;;;28.80;78.20;;;;;;4130788;28;20080;-64
2022/07/28 10:18:39;;;;;;;4.03;2.40;;;28.70;78.20;;;;;;4160333;28;20095;-65
2022/07/28 10:20:41;;;;;;;4.18;2.47;;;28.60;78.00;;;;;;4130433;28;20037;-64
2022/07/28 10:22:42;;;;;;;3.50;2.72;;;28.70;77.90;;;;;;4128884;28;20058;-67
2022/07/28 10:24:46;;;;;;;3.97;2.35;;;29.00;77.40;;;;;;4130577;28;20558;-67
2022/07/28 10:26:48;;;;;;;5.30;2.13;;;29.10;77.10;;;;;;4129397;28;20100;-65
2022/07/28 10:28:52;;;;;;;4.57;2.38;;;29.10;76.80;;;;;;4130377;28;20426;-68
2022/07/28 10:30:59;;;;;;;3.58;2.35;;;29.10;77.00;;;;;;4129932;28;20427;-65
2022/07/28 10:33:07;;;;;;;4.00;2.55;;;29.20;76.60;;;;;;4129931;28;20088;-64
2022/07/28 10:35:12;;;;;;;3.55;2.55;;;29.20;76.90;;;;;;4129897;28;20046;-65
2022/07/28 10:37:19;;;;;;;4.38;2.97;;;29.10;76.70;;;;;;4129658;28;20485;-66
2022/07/28 10:39:24;;;;;;;7.32;2.55;;;29.20;76.70;;;;;;4130084;28;20097;-66
2022/07/28 10:41:31;;;;;;;2.88;2.10;;;29.00;76.70;;;;;;4129396;28;20434;-68
2022/07/28 10:43:34;;;;;;;7.82;2.75;;;29.00;76.90;;;;;;4130214;28;20099;-64
2022/07/28 10:45:36;;;;;;;2.97;2.25;;;29.10;76.90;;;;;;4129074;28;20081;-68